sensor_id;sensor_type;location;lat;lon;timestamp;P1;durP1;ratioP1;P2;durP2;ratioP2
55330;SDS011;58851;42.984;20.336;2024-01-30T00:01:42;96.53;;;55.50;;
55330;SDS011;58851;42.984;20.336;2024-01-30T00:04:08;109.97;;;61.67;;
55330;SDS011;58851;42.984;20.336;2024-01-30T00:06:34;105.30;;;60.42;;
55330;SDS011;58851;42.984;20.336;2024-01-30T00:09:00;119.82;;;65.22;;
55330;SDS011;58851;42.984;20.336;2024-01-30T00:11:26;142.65;;;80.78;;
55330;SDS011;58851;42.984;20.336;2024-01-30T00:13:53;115.75;;;64.25;;
55330;SDS011;58851;42.984;20.336;2024-01-30T00:16:20;91.00;;;54.20;;
55330;SDS011;58851;42.984;20.336;2024-01-30T00:18:47;82.80;;;49.22;;
55330;SDS011;58851;42.984;20.336;2024-01-30T00:21:13;86.00;;;50.88;;
55330;SDS011;58851;42.984;20.336;2024-01-30T00:23:39;96.50;;;57.53;;
55330;SDS011;58851;42.984;20.336;2024-01-30T00:26:05;100.53;;;53.97;;
55330;SDS011;58851;42.984;20.336;2024-01-30T00:28:32;134.30;;;75.22;;
55330;SDS011;58851;42.984;20.336;2024-01-30T00:30:57;102.18;;;57.20;;
55330;SDS011;58851;42.984;20.336;2024-01-30T00:33:23;89.60;;;53.42;;
55330;SDS011;58851;42.984;20.336;2024-01-30T00:35:49;86.05;;;47.95;;
55330;SDS011;58851;42.984;20.336;2024-01-30T00:38:15;81.75;;;46.95;;
55330;SDS011;58851;42.984;20.336;2024-01-30T00:40:40;94.20;;;52.40;;
55330;SDS011;58851;42.984;20.336;2024-01-30T00:43:06;92.85;;;51.35;;
55330;SDS011;58851;42.984;20.336;2024-01-30T00:45:32;74.70;;;43.25;;
55330;SDS011;58851;42.984;20.336;2024-01-30T00:47:58;62.20;;;33.75;;
55330;SDS011;58851;42.984;20.336;2024-01-30T00:50:24;51.08;;;31.83;;
55330;SDS011;58851;42.984;20.336;2024-01-30T00:52:50;49.30;;;30.77;;
55330;SDS011;58851;42.984;20.336;2024-01-30T00:55:16;69.05;;;37.42;;
55330;SDS011;58851;42.984;20.336;2024-01-30T00:57:42;67.47;;;39.00;;
55330;SDS011;58851;42.984;20.336;2024-01-30T01:00:07;64.95;;;39.70;;
55330;SDS011;58851;42.984;20.336;2024-01-30T01:02:37;78.63;;;43.80;;
55330;SDS011;58851;42.984;20.336;2024-01-30T01:05:04;88.10;;;47.67;;
55330;SDS011;58851;42.984;20.336;2024-01-30T01:07:30;83.45;;;41.80;;
55330;SDS011;58851;42.984;20.336;2024-01-30T01:09:56;64.68;;;34.67;;
55330;SDS011;58851;42.984;20.336;2024-01-30T01:12:22;70.80;;;33.95;;
55330;SDS011;58851;42.984;20.336;2024-01-30T01:14:49;59.70;;;30.42;;
55330;SDS011;58851;42.984;20.336;2024-01-30T01:17:15;41.28;;;23.05;;
55330;SDS011;58851;42.984;20.336;2024-01-30T01:19:41;55.22;;;27.52;;
55330;SDS011;58851;42.984;20.336;2024-01-30T01:22:07;74.28;;;38.55;;
55330;SDS011;58851;42.984;20.336;2024-01-30T01:24:33;66.97;;;39.15;;
55330;SDS011;58851;42.984;20.336;2024-01-30T01:26:59;55.03;;;31.67;;
55330;SDS011;58851;42.984;20.336;2024-01-30T01:29:25;58.63;;;31.50;;
55330;SDS011;58851;42.984;20.336;2024-01-30T01:31:54;53.17;;;30.15;;
55330;SDS011;58851;42.984;20.336;2024-01-30T01:34:21;60.15;;;33.63;;
55330;SDS011;58851;42.984;20.336;2024-01-30T01:36:47;67.88;;;36.22;;
55330;SDS011;58851;42.984;20.336;2024-01-30T01:39:13;62.47;;;34.40;;
55330;SDS011;58851;42.984;20.336;2024-01-30T01:41:38;60.20;;;33.25;;
55330;SDS011;58851;42.984;20.336;2024-01-30T01:44:04;46.03;;;25.60;;
55330;SDS011;58851;42.984;20.336;2024-01-30T01:46:31;39.72;;;26.25;;
55330;SDS011;58851;42.984;20.336;2024-01-30T01:48:59;61.83;;;33.17;;
55330;SDS011;58851;42.984;20.336;2024-01-30T01:51:27;56.50;;;30.15;;
55330;SDS011;58851;42.984;20.336;2024-01-30T01:53:54;55.83;;;30.00;;
55330;SDS011;58851;42.984;20.336;2024-01-30T01:56:22;74.10;;;37.40;;
55330;SDS011;58851;42.984;20.336;2024-01-30T01:58:48;58.95;;;35.28;;
55330;SDS011;58851;42.984;20.336;2024-01-30T02:01:17;76.07;;;41.22;;
55330;SDS011;58851;42.984;20.336;2024-01-30T02:03:45;65.57;;;39.33;;
55330;SDS011;58851;42.984;20.336;2024-01-30T02:06:12;57.88;;;35.30;;
55330;SDS011;58851;42.984;20.336;2024-01-30T02:08:38;53.17;;;31.70;;
55330;SDS011;58851;42.984;20.336;2024-01-30T02:11:04;60.40;;;34.58;;
55330;SDS011;58851;42.984;20.336;2024-01-30T02:13:30;77.70;;;43.50;;
55330;SDS011;58851;42.984;20.336;2024-01-30T02:15:56;62.53;;;37.28;;
55330;SDS011;58851;42.984;20.336;2024-01-30T02:18:22;43.03;;;26.42;;
55330;SDS011;58851;42.984;20.336;2024-01-30T02:20:48;64.10;;;37.95;;
55330;SDS011;58851;42.984;20.336;2024-01-30T02:23:15;71.53;;;41.15;;
55330;SDS011;58851;42.984;20.336;2024-01-30T02:25:42;50.40;;;32.95;;
55330;SDS011;58851;42.984;20.336;2024-01-30T02:28:14;49.30;;;27.98;;
55330;SDS011;58851;42.984;20.336;2024-01-30T02:30:40;52.05;;;28.38;;
55330;SDS011;58851;42.984;20.336;2024-01-30T02:33:07;46.85;;;27.08;;
55330;SDS011;58851;42.984;20.336;2024-01-30T02:35:33;46.47;;;27.35;;
55330;SDS011;58851;42.984;20.336;2024-01-30T02:37:59;44.70;;;24.90;;
55330;SDS011;58851;42.984;20.336;2024-01-30T02:40:25;40.55;;;22.52;;
55330;SDS011;58851;42.984;20.336;2024-01-30T02:42:51;47.28;;;28.63;;
55330;SDS011;58851;42.984;20.336;2024-01-30T02:45:17;39.35;;;24.48;;
55330;SDS011;58851;42.984;20.336;2024-01-30T02:47:43;38.90;;;22.17;;
55330;SDS011;58851;42.984;20.336;2024-01-30T02:50:09;25.60;;;15.48;;
55330;SDS011;58851;42.984;20.336;2024-01-30T02:52:35;41.05;;;24.13;;
55330;SDS011;58851;42.984;20.336;2024-01-30T02:55:01;47.97;;;24.88;;
55330;SDS011;58851;42.984;20.336;2024-01-30T02:57:27;35.50;;;18.70;;
55330;SDS011;58851;42.984;20.336;2024-01-30T02:59:53;35.47;;;21.70;;
55330;SDS011;58851;42.984;20.336;2024-01-30T03:02:19;26.40;;;18.00;;
55330;SDS011;58851;42.984;20.336;2024-01-30T03:04:45;33.03;;;18.75;;
55330;SDS011;58851;42.984;20.336;2024-01-30T03:07:11;34.35;;;20.95;;
55330;SDS011;58851;42.984;20.336;2024-01-30T03:09:37;39.67;;;24.05;;
55330;SDS011;58851;42.984;20.336;2024-01-30T03:12:03;38.25;;;23.95;;
55330;SDS011;58851;42.984;20.336;2024-01-30T03:14:30;47.60;;;27.30;;
55330;SDS011;58851;42.984;20.336;2024-01-30T03:16:57;53.97;;;28.30;;
55330;SDS011;58851;42.984;20.336;2024-01-30T03:19:23;42.63;;;24.98;;
55330;SDS011;58851;42.984;20.336;2024-01-30T03:21:49;48.67;;;24.15;;
55330;SDS011;58851;42.984;20.336;2024-01-30T03:24:15;35.58;;;22.27;;
55330;SDS011;58851;42.984;20.336;2024-01-30T03:26:41;44.83;;;25.85;;
55330;SDS011;58851;42.984;20.336;2024-01-30T03:29:07;44.58;;;26.25;;
55330;SDS011;58851;42.984;20.336;2024-01-30T03:31:32;39.10;;;24.23;;
55330;SDS011;58851;42.984;20.336;2024-01-30T03:33:58;45.08;;;25.98;;
55330;SDS011;58851;42.984;20.336;2024-01-30T03:36:24;42.90;;;26.13;;
55330;SDS011;58851;42.984;20.336;2024-01-30T03:38:50;43.50;;;25.27;;
55330;SDS011;58851;42.984;20.336;2024-01-30T03:41:16;40.60;;;24.90;;
55330;SDS011;58851;42.984;20.336;2024-01-30T03:43:41;44.38;;;26.67;;
55330;SDS011;58851;42.984;20.336;2024-01-30T03:46:07;41.63;;;22.88;;
55330;SDS011;58851;42.984;20.336;2024-01-30T03:48:33;34.38;;;19.30;;
55330;SDS011;58851;42.984;20.336;2024-01-30T03:50:59;23.98;;;16.75;;
55330;SDS011;58851;42.984;20.336;2024-01-30T03:53:25;32.25;;;18.13;;
55330;SDS011;58851;42.984;20.336;2024-01-30T03:55:51;24.33;;;15.68;;
55330;SDS011;58851;42.984;20.336;2024-01-30T03:58:17;25.63;;;16.60;;
55330;SDS011;58851;42.984;20.336;2024-01-30T04:00:42;28.35;;;18.70;;
55330;SDS011;58851;42.984;20.336;2024-01-30T04:03:08;24.35;;;15.95;;
55330;SDS011;58851;42.984;20.336;2024-01-30T04:05:34;23.17;;;16.15;;
55330;SDS011;58851;42.984;20.336;2024-01-30T04:08:00;31.70;;;17.02;;
55330;SDS011;58851;42.984;20.336;2024-01-30T04:10:26;28.90;;;17.05;;
55330;SDS011;58851;42.984;20.336;2024-01-30T04:12:51;27.90;;;18.15;;
55330;SDS011;58851;42.984;20.336;2024-01-30T04:15:19;35.63;;;18.55;;
55330;SDS011;58851;42.984;20.336;2024-01-30T04:17:44;48.80;;;28.73;;
55330;SDS011;58851;42.984;20.336;2024-01-30T04:20:14;84.85;;;44.72;;
55330;SDS011;58851;42.984;20.336;2024-01-30T04:22:42;112.20;;;61.75;;
55330;SDS011;58851;42.984;20.336;2024-01-30T04:25:11;55.83;;;33.25;;
55330;SDS011;58851;42.984;20.336;2024-01-30T04:27:38;29.63;;;17.63;;
55330;SDS011;58851;42.984;20.336;2024-01-30T04:30:04;18.98;;;14.05;;
55330;SDS011;58851;42.984;20.336;2024-01-30T04:32:31;24.08;;;15.93;;
55330;SDS011;58851;42.984;20.336;2024-01-30T04:34:57;41.03;;;23.10;;
55330;SDS011;58851;42.984;20.336;2024-01-30T04:37:23;30.90;;;19.27;;
55330;SDS011;58851;42.984;20.336;2024-01-30T04:39:50;36.13;;;20.30;;
55330;SDS011;58851;42.984;20.336;2024-01-30T04:42:16;38.92;;;23.05;;
55330;SDS011;58851;42.984;20.336;2024-01-30T04:44:42;40.72;;;23.95;;
55330;SDS011;58851;42.984;20.336;2024-01-30T04:47:08;32.28;;;20.60;;
55330;SDS011;58851;42.984;20.336;2024-01-30T04:49:36;29.35;;;18.10;;
55330;SDS011;58851;42.984;20.336;2024-01-30T04:52:02;33.33;;;18.30;;
55330;SDS011;58851;42.984;20.336;2024-01-30T04:54:28;24.55;;;16.02;;
55330;SDS011;58851;42.984;20.336;2024-01-30T04:56:53;21.70;;;13.98;;
55330;SDS011;58851;42.984;20.336;2024-01-30T04:59:19;25.73;;;14.57;;
55330;SDS011;58851;42.984;20.336;2024-01-30T05:01:45;25.95;;;15.45;;
55330;SDS011;58851;42.984;20.336;2024-01-30T05:04:11;28.92;;;18.77;;
55330;SDS011;58851;42.984;20.336;2024-01-30T05:06:37;29.88;;;16.38;;
55330;SDS011;58851;42.984;20.336;2024-01-30T05:09:03;31.35;;;18.92;;
55330;SDS011;58851;42.984;20.336;2024-01-30T05:11:29;31.17;;;19.35;;
55330;SDS011;58851;42.984;20.336;2024-01-30T05:13:56;28.25;;;18.10;;
55330;SDS011;58851;42.984;20.336;2024-01-30T05:16:21;40.53;;;25.77;;
55330;SDS011;58851;42.984;20.336;2024-01-30T05:18:47;33.05;;;21.15;;
55330;SDS011;58851;42.984;20.336;2024-01-30T05:21:13;39.63;;;21.52;;
55330;SDS011;58851;42.984;20.336;2024-01-30T05:23:40;54.92;;;22.13;;
55330;SDS011;58851;42.984;20.336;2024-01-30T05:26:07;36.60;;;22.02;;
55330;SDS011;58851;42.984;20.336;2024-01-30T05:28:33;35.17;;;22.60;;
55330;SDS011;58851;42.984;20.336;2024-01-30T05:30:59;25.73;;;16.15;;
55330;SDS011;58851;42.984;20.336;2024-01-30T05:33:25;32.17;;;18.77;;
55330;SDS011;58851;42.984;20.336;2024-01-30T05:35:50;29.48;;;19.35;;
55330;SDS011;58851;42.984;20.336;2024-01-30T05:38:19;30.45;;;18.98;;
55330;SDS011;58851;42.984;20.336;2024-01-30T05:40:45;29.95;;;18.95;;
55330;SDS011;58851;42.984;20.336;2024-01-30T05:43:11;39.78;;;24.70;;
55330;SDS011;58851;42.984;20.336;2024-01-30T05:45:37;50.38;;;28.92;;
55330;SDS011;58851;42.984;20.336;2024-01-30T05:48:03;66.28;;;34.53;;
55330;SDS011;58851;42.984;20.336;2024-01-30T05:50:29;109.57;;;53.70;;
55330;SDS011;58851;42.984;20.336;2024-01-30T05:52:55;53.00;;;31.08;;
55330;SDS011;58851;42.984;20.336;2024-01-30T05:55:21;59.53;;;34.85;;
55330;SDS011;58851;42.984;20.336;2024-01-30T05:57:47;66.15;;;34.25;;
55330;SDS011;58851;42.984;20.336;2024-01-30T06:00:13;40.55;;;25.25;;
55330;SDS011;58851;42.984;20.336;2024-01-30T06:02:39;38.53;;;23.95;;
55330;SDS011;58851;42.984;20.336;2024-01-30T06:05:05;46.17;;;28.63;;
55330;SDS011;58851;42.984;20.336;2024-01-30T06:07:31;53.25;;;31.85;;
55330;SDS011;58851;42.984;20.336;2024-01-30T06:09:57;43.78;;;29.35;;
55330;SDS011;58851;42.984;20.336;2024-01-30T06:12:26;48.13;;;29.83;;
55330;SDS011;58851;42.984;20.336;2024-01-30T06:14:53;55.13;;;31.98;;
55330;SDS011;58851;42.984;20.336;2024-01-30T06:17:21;54.42;;;31.83;;
55330;SDS011;58851;42.984;20.336;2024-01-30T06:19:48;68.97;;;45.20;;
55330;SDS011;58851;42.984;20.336;2024-01-30T06:22:14;55.45;;;30.90;;
55330;SDS011;58851;42.984;20.336;2024-01-30T06:24:40;54.42;;;33.42;;
55330;SDS011;58851;42.984;20.336;2024-01-30T06:27:06;54.15;;;32.83;;
55330;SDS011;58851;42.984;20.336;2024-01-30T06:29:32;83.03;;;41.55;;
55330;SDS011;58851;42.984;20.336;2024-01-30T06:31:57;60.20;;;39.30;;
55330;SDS011;58851;42.984;20.336;2024-01-30T06:34:23;66.05;;;39.55;;
55330;SDS011;58851;42.984;20.336;2024-01-30T06:36:51;58.90;;;34.95;;
55330;SDS011;58851;42.984;20.336;2024-01-30T06:39:17;59.30;;;40.00;;
55330;SDS011;58851;42.984;20.336;2024-01-30T06:41:43;58.92;;;36.75;;
55330;SDS011;58851;42.984;20.336;2024-01-30T06:44:11;67.03;;;41.67;;
55330;SDS011;58851;42.984;20.336;2024-01-30T06:46:37;80.10;;;47.38;;
55330;SDS011;58851;42.984;20.336;2024-01-30T06:49:03;52.70;;;32.95;;
55330;SDS011;58851;42.984;20.336;2024-01-30T06:51:29;59.13;;;33.20;;
55330;SDS011;58851;42.984;20.336;2024-01-30T06:53:55;60.25;;;34.38;;
55330;SDS011;58851;42.984;20.336;2024-01-30T06:56:21;43.63;;;26.38;;
55330;SDS011;58851;42.984;20.336;2024-01-30T06:58:50;40.83;;;23.98;;
55330;SDS011;58851;42.984;20.336;2024-01-30T07:01:16;80.18;;;40.78;;
55330;SDS011;58851;42.984;20.336;2024-01-30T07:03:42;43.30;;;25.02;;
55330;SDS011;58851;42.984;20.336;2024-01-30T07:06:09;37.63;;;23.23;;
55330;SDS011;58851;42.984;20.336;2024-01-30T07:08:38;38.85;;;21.35;;
55330;SDS011;58851;42.984;20.336;2024-01-30T07:11:05;33.85;;;20.98;;
55330;SDS011;58851;42.984;20.336;2024-01-30T07:13:31;37.53;;;25.58;;
55330;SDS011;58851;42.984;20.336;2024-01-30T07:15:57;65.30;;;35.05;;
55330;SDS011;58851;42.984;20.336;2024-01-30T07:18:23;73.57;;;42.40;;
55330;SDS011;58851;42.984;20.336;2024-01-30T07:20:49;68.65;;;41.45;;
55330;SDS011;58851;42.984;20.336;2024-01-30T07:23:16;69.18;;;43.50;;
55330;SDS011;58851;42.984;20.336;2024-01-30T07:25:43;76.20;;;47.53;;
55330;SDS011;58851;42.984;20.336;2024-01-30T07:28:10;76.47;;;47.13;;
55330;SDS011;58851;42.984;20.336;2024-01-30T07:30:38;73.45;;;44.75;;
55330;SDS011;58851;42.984;20.336;2024-01-30T07:33:05;80.18;;;45.13;;
55330;SDS011;58851;42.984;20.336;2024-01-30T07:35:32;87.82;;;50.55;;
55330;SDS011;58851;42.984;20.336;2024-01-30T07:37:58;63.33;;;36.90;;
55330;SDS011;58851;42.984;20.336;2024-01-30T07:40:23;59.42;;;35.72;;
55330;SDS011;58851;42.984;20.336;2024-01-30T07:42:49;61.33;;;36.00;;
55330;SDS011;58851;42.984;20.336;2024-01-30T07:45:15;84.57;;;46.83;;
55330;SDS011;58851;42.984;20.336;2024-01-30T07:47:42;65.75;;;39.47;;
55330;SDS011;58851;42.984;20.336;2024-01-30T07:50:08;63.28;;;36.67;;
55330;SDS011;58851;42.984;20.336;2024-01-30T07:52:34;54.17;;;34.15;;
55330;SDS011;58851;42.984;20.336;2024-01-30T07:55:00;50.35;;;31.13;;
55330;SDS011;58851;42.984;20.336;2024-01-30T07:57:26;60.42;;;35.28;;
55330;SDS011;58851;42.984;20.336;2024-01-30T07:59:51;50.72;;;32.15;;
55330;SDS011;58851;42.984;20.336;2024-01-30T08:02:17;46.58;;;30.30;;
55330;SDS011;58851;42.984;20.336;2024-01-30T08:04:43;42.30;;;27.00;;
55330;SDS011;58851;42.984;20.336;2024-01-30T08:07:13;47.28;;;30.10;;
55330;SDS011;58851;42.984;20.336;2024-01-30T08:09:39;52.90;;;33.33;;
55330;SDS011;58851;42.984;20.336;2024-01-30T08:12:05;48.75;;;32.35;;
55330;SDS011;58851;42.984;20.336;2024-01-30T08:14:31;66.25;;;40.78;;
55330;SDS011;58851;42.984;20.336;2024-01-30T08:16:57;57.47;;;37.30;;
55330;SDS011;58851;42.984;20.336;2024-01-30T08:19:23;60.47;;;39.53;;
55330;SDS011;58851;42.984;20.336;2024-01-30T08:21:49;56.38;;;35.45;;
55330;SDS011;58851;42.984;20.336;2024-01-30T08:24:15;78.07;;;43.97;;
55330;SDS011;58851;42.984;20.336;2024-01-30T08:26:41;59.60;;;38.15;;
55330;SDS011;58851;42.984;20.336;2024-01-30T08:29:07;55.15;;;34.05;;
55330;SDS011;58851;42.984;20.336;2024-01-30T08:31:33;50.75;;;31.98;;
55330;SDS011;58851;42.984;20.336;2024-01-30T08:33:59;56.28;;;32.63;;
55330;SDS011;58851;42.984;20.336;2024-01-30T08:36:25;45.85;;;28.70;;
55330;SDS011;58851;42.984;20.336;2024-01-30T08:38:51;47.13;;;29.63;;
55330;SDS011;58851;42.984;20.336;2024-01-30T08:41:17;39.10;;;25.10;;
55330;SDS011;58851;42.984;20.336;2024-01-30T08:43:42;45.50;;;27.10;;
55330;SDS011;58851;42.984;20.336;2024-01-30T08:46:09;111.22;;;55.92;;
55330;SDS011;58851;42.984;20.336;2024-01-30T08:48:36;82.72;;;49.83;;
55330;SDS011;58851;42.984;20.336;2024-01-30T08:51:11;45.13;;;31.08;;
55330;SDS011;58851;42.984;20.336;2024-01-30T08:53:42;39.22;;;26.83;;
55330;SDS011;58851;42.984;20.336;2024-01-30T08:56:08;50.00;;;31.52;;
55330;SDS011;58851;42.984;20.336;2024-01-30T08:58:34;45.95;;;32.38;;
55330;SDS011;58851;42.984;20.336;2024-01-30T09:01:00;51.38;;;34.75;;
55330;SDS011;58851;42.984;20.336;2024-01-30T09:03:25;45.83;;;28.73;;
55330;SDS011;58851;42.984;20.336;2024-01-30T09:05:52;41.70;;;26.20;;
55330;SDS011;58851;42.984;20.336;2024-01-30T09:08:18;42.60;;;23.77;;
55330;SDS011;58851;42.984;20.336;2024-01-30T09:10:44;44.97;;;29.05;;
55330;SDS011;58851;42.984;20.336;2024-01-30T09:13:10;36.90;;;23.13;;
55330;SDS011;58851;42.984;20.336;2024-01-30T09:15:35;34.90;;;20.52;;
55330;SDS011;58851;42.984;20.336;2024-01-30T09:18:01;25.20;;;16.45;;
55330;SDS011;58851;42.984;20.336;2024-01-30T09:20:27;19.17;;;11.95;;
55330;SDS011;58851;42.984;20.336;2024-01-30T09:22:53;22.25;;;13.98;;
55330;SDS011;58851;42.984;20.336;2024-01-30T09:25:19;26.90;;;17.23;;
55330;SDS011;58851;42.984;20.336;2024-01-30T09:27:44;26.20;;;18.10;;
55330;SDS011;58851;42.984;20.336;2024-01-30T09:30:11;25.02;;;15.15;;
55330;SDS011;58851;42.984;20.336;2024-01-30T09:32:39;22.00;;;14.95;;
55330;SDS011;58851;42.984;20.336;2024-01-30T09:35:05;18.15;;;12.32;;
55330;SDS011;58851;42.984;20.336;2024-01-30T09:37:31;22.42;;;14.85;;
55330;SDS011;58851;42.984;20.336;2024-01-30T09:39:57;18.08;;;13.05;;
55330;SDS011;58851;42.984;20.336;2024-01-30T09:47:23;59.22;;;39.17;;
55330;SDS011;58851;42.984;20.336;2024-01-30T09:49:50;28.50;;;16.38;;
55330;SDS011;58851;42.984;20.336;2024-01-30T09:52:16;30.52;;;21.48;;
55330;SDS011;58851;42.984;20.336;2024-01-30T09:54:43;28.77;;;19.30;;
55330;SDS011;58851;42.984;20.336;2024-01-30T09:57:11;32.28;;;23.48;;
55330;SDS011;58851;42.984;20.336;2024-01-30T09:59:37;20.45;;;15.82;;
55330;SDS011;58851;42.984;20.336;2024-01-30T10:02:03;28.95;;;18.35;;
55330;SDS011;58851;42.984;20.336;2024-01-30T10:04:29;26.13;;;17.50;;
55330;SDS011;58851;42.984;20.336;2024-01-30T10:06:55;27.30;;;18.98;;
55330;SDS011;58851;42.984;20.336;2024-01-30T10:09:23;24.27;;;18.42;;
55330;SDS011;58851;42.984;20.336;2024-01-30T10:11:50;30.60;;;20.95;;
55330;SDS011;58851;42.984;20.336;2024-01-30T10:14:16;34.78;;;21.35;;
55330;SDS011;58851;42.984;20.336;2024-01-30T10:16:42;29.40;;;20.20;;
55330;SDS011;58851;42.984;20.336;2024-01-30T10:19:10;33.47;;;22.67;;
55330;SDS011;58851;42.984;20.336;2024-01-30T10:21:36;32.00;;;22.42;;
55330;SDS011;58851;42.984;20.336;2024-01-30T10:24:02;34.95;;;23.98;;
55330;SDS011;58851;42.984;20.336;2024-01-30T10:26:28;30.83;;;23.27;;
55330;SDS011;58851;42.984;20.336;2024-01-30T10:28:54;33.33;;;24.05;;
55330;SDS011;58851;42.984;20.336;2024-01-30T10:31:20;33.28;;;24.27;;
55330;SDS011;58851;42.984;20.336;2024-01-30T10:33:46;33.33;;;24.40;;
55330;SDS011;58851;42.984;20.336;2024-01-30T10:36:13;38.40;;;28.90;;
55330;SDS011;58851;42.984;20.336;2024-01-30T10:38:42;33.35;;;23.13;;
55330;SDS011;58851;42.984;20.336;2024-01-30T10:41:11;38.75;;;23.30;;
55330;SDS011;58851;42.984;20.336;2024-01-30T10:43:40;32.92;;;23.00;;
55330;SDS011;58851;42.984;20.336;2024-01-30T10:46:10;28.67;;;20.00;;
55330;SDS011;58851;42.984;20.336;2024-01-30T10:48:43;29.67;;;21.60;;
55330;SDS011;58851;42.984;20.336;2024-01-30T10:51:14;36.25;;;25.45;;
55330;SDS011;58851;42.984;20.336;2024-01-30T10:53:40;26.77;;;17.90;;
55330;SDS011;58851;42.984;20.336;2024-01-30T10:56:09;33.05;;;23.25;;
55330;SDS011;58851;42.984;20.336;2024-01-30T10:58:36;25.52;;;17.92;;
55330;SDS011;58851;42.984;20.336;2024-01-30T11:01:03;39.17;;;22.33;;
55330;SDS011;58851;42.984;20.336;2024-01-30T11:03:31;31.83;;;21.88;;
55330;SDS011;58851;42.984;20.336;2024-01-30T11:06:00;29.65;;;21.30;;
55330;SDS011;58851;42.984;20.336;2024-01-30T11:08:26;33.05;;;21.33;;
55330;SDS011;58851;42.984;20.336;2024-01-30T11:10:56;27.77;;;17.92;;
55330;SDS011;58851;42.984;20.336;2024-01-30T11:13:26;22.40;;;15.15;;
55330;SDS011;58851;42.984;20.336;2024-01-30T11:15:53;27.00;;;17.30;;
55330;SDS011;58851;42.984;20.336;2024-01-30T11:18:25;31.75;;;20.73;;
55330;SDS011;58851;42.984;20.336;2024-01-30T11:23:22;26.40;;;17.45;;
55330;SDS011;58851;42.984;20.336;2024-01-30T11:25:48;25.13;;;17.92;;
55330;SDS011;58851;42.984;20.336;2024-01-30T11:28:14;24.90;;;18.55;;
55330;SDS011;58851;42.984;20.336;2024-01-30T11:30:41;27.92;;;17.00;;
55330;SDS011;58851;42.984;20.336;2024-01-30T11:33:11;23.13;;;16.30;;
55330;SDS011;58851;42.984;20.336;2024-01-30T11:35:39;24.60;;;17.20;;
55330;SDS011;58851;42.984;20.336;2024-01-30T11:38:06;24.35;;;17.63;;
55330;SDS011;58851;42.984;20.336;2024-01-30T11:40:33;26.77;;;18.10;;
55330;SDS011;58851;42.984;20.336;2024-01-30T11:43:01;21.58;;;16.35;;
55330;SDS011;58851;42.984;20.336;2024-01-30T11:45:28;28.35;;;17.52;;
55330;SDS011;58851;42.984;20.336;2024-01-30T11:47:54;28.77;;;17.52;;
55330;SDS011;58851;42.984;20.336;2024-01-30T11:50:21;78.90;;;48.10;;
55330;SDS011;58851;42.984;20.336;2024-01-30T11:52:47;23.77;;;17.38;;
55330;SDS011;58851;42.984;20.336;2024-01-30T11:55:14;20.35;;;15.23;;
55330;SDS011;58851;42.984;20.336;2024-01-30T11:57:40;26.92;;;18.52;;
55330;SDS011;58851;42.984;20.336;2024-01-30T12:00:06;17.08;;;11.77;;
55330;SDS011;58851;42.984;20.336;2024-01-30T12:02:40;20.77;;;14.15;;
55330;SDS011;58851;42.984;20.336;2024-01-30T12:05:07;25.98;;;17.08;;
55330;SDS011;58851;42.984;20.336;2024-01-30T12:07:34;20.15;;;14.40;;
55330;SDS011;58851;42.984;20.336;2024-01-30T12:10:01;22.65;;;15.68;;
55330;SDS011;58851;42.984;20.336;2024-01-30T12:12:27;17.73;;;11.57;;
55330;SDS011;58851;42.984;20.336;2024-01-30T12:14:55;11.48;;;8.23;;
55330;SDS011;58851;42.984;20.336;2024-01-30T12:17:27;14.85;;;11.02;;
55330;SDS011;58851;42.984;20.336;2024-01-30T12:20:07;26.08;;;14.93;;
55330;SDS011;58851;42.984;20.336;2024-01-30T12:22:37;15.45;;;10.27;;
55330;SDS011;58851;42.984;20.336;2024-01-30T12:25:12;13.48;;;9.75;;
55330;SDS011;58851;42.984;20.336;2024-01-30T12:27:39;15.13;;;10.68;;
55330;SDS011;58851;42.984;20.336;2024-01-30T12:30:07;12.07;;;10.38;;
55330;SDS011;58851;42.984;20.336;2024-01-30T12:32:39;18.95;;;12.15;;
55330;SDS011;58851;42.984;20.336;2024-01-30T12:35:12;25.38;;;19.92;;
55330;SDS011;58851;42.984;20.336;2024-01-30T12:37:39;12.68;;;8.38;;
55330;SDS011;58851;42.984;20.336;2024-01-30T12:40:09;33.72;;;19.10;;
55330;SDS011;58851;42.984;20.336;2024-01-30T12:42:38;18.70;;;12.18;;
55330;SDS011;58851;42.984;20.336;2024-01-30T12:45:04;11.27;;;7.68;;
55330;SDS011;58851;42.984;20.336;2024-01-30T12:47:30;17.25;;;13.38;;
55330;SDS011;58851;42.984;20.336;2024-01-30T12:49:57;12.65;;;8.95;;
55330;SDS011;58851;42.984;20.336;2024-01-30T12:52:23;13.15;;;8.90;;
55330;SDS011;58851;42.984;20.336;2024-01-30T12:54:50;17.92;;;12.00;;
55330;SDS011;58851;42.984;20.336;2024-01-30T12:57:16;16.52;;;9.40;;
55330;SDS011;58851;42.984;20.336;2024-01-30T12:59:43;32.17;;;21.95;;
55330;SDS011;58851;42.984;20.336;2024-01-30T13:02:10;17.15;;;10.90;;
55330;SDS011;58851;42.984;20.336;2024-01-30T13:04:37;13.02;;;9.63;;
55330;SDS011;58851;42.984;20.336;2024-01-30T13:07:03;12.27;;;8.32;;
55330;SDS011;58851;42.984;20.336;2024-01-30T13:09:29;27.95;;;16.45;;
55330;SDS011;58851;42.984;20.336;2024-01-30T13:11:56;20.15;;;12.70;;
55330;SDS011;58851;42.984;20.336;2024-01-30T13:14:23;19.70;;;12.93;;
55330;SDS011;58851;42.984;20.336;2024-01-30T13:16:50;16.88;;;9.63;;
55330;SDS011;58851;42.984;20.336;2024-01-30T13:19:16;14.10;;;10.23;;
55330;SDS011;58851;42.984;20.336;2024-01-30T13:21:42;15.50;;;10.15;;
55330;SDS011;58851;42.984;20.336;2024-01-30T13:24:08;14.13;;;10.07;;
55330;SDS011;58851;42.984;20.336;2024-01-30T13:26:34;22.13;;;11.50;;
55330;SDS011;58851;42.984;20.336;2024-01-30T13:29:01;18.10;;;11.93;;
55330;SDS011;58851;42.984;20.336;2024-01-30T13:31:27;15.60;;;9.10;;
55330;SDS011;58851;42.984;20.336;2024-01-30T13:33:53;15.05;;;11.02;;
55330;SDS011;58851;42.984;20.336;2024-01-30T13:36:19;23.90;;;19.85;;
55330;SDS011;58851;42.984;20.336;2024-01-30T13:38:46;17.20;;;12.50;;
55330;SDS011;58851;42.984;20.336;2024-01-30T13:41:12;13.18;;;8.93;;
55330;SDS011;58851;42.984;20.336;2024-01-30T13:43:38;13.45;;;9.95;;
55330;SDS011;58851;42.984;20.336;2024-01-30T13:46:03;11.60;;;7.88;;
55330;SDS011;58851;42.984;20.336;2024-01-30T13:48:30;16.52;;;11.35;;
55330;SDS011;58851;42.984;20.336;2024-01-30T13:50:57;21.05;;;12.75;;
55330;SDS011;58851;42.984;20.336;2024-01-30T13:53:22;13.43;;;10.70;;
55330;SDS011;58851;42.984;20.336;2024-01-30T13:55:48;27.20;;;14.90;;
55330;SDS011;58851;42.984;20.336;2024-01-30T13:58:14;18.13;;;11.82;;
55330;SDS011;58851;42.984;20.336;2024-01-30T14:00:40;14.77;;;8.68;;
55330;SDS011;58851;42.984;20.336;2024-01-30T14:03:06;9.50;;;6.72;;
55330;SDS011;58851;42.984;20.336;2024-01-30T14:05:31;9.90;;;6.60;;
55330;SDS011;58851;42.984;20.336;2024-01-30T14:07:57;12.23;;;8.52;;
55330;SDS011;58851;42.984;20.336;2024-01-30T14:10:24;11.27;;;6.32;;
55330;SDS011;58851;42.984;20.336;2024-01-30T14:12:50;9.55;;;7.13;;